createdAt,value
2023-02-02T00:01:29.506Z,4.38
2023-02-02T00:03:57.247Z,4.93
2023-02-02T00:06:26.924Z,4.53
2023-02-02T00:08:55.601Z,5.03
2023-02-02T00:11:22.533Z,4.53
2023-02-02T00:13:49.217Z,5.30
2023-02-02T00:16:31.301Z,4.22
2023-02-02T00:19:03.871Z,5.28
2023-02-02T00:21:30.723Z,5.13
2023-02-02T00:23:57.846Z,5.30
2023-02-02T00:26:25.031Z,5.30
2023-02-02T00:28:51.996Z,4.72
2023-02-02T00:31:18.904Z,5.53
2023-02-02T00:33:47.363Z,5.65
2023-02-02T00:36:14.561Z,5.72
2023-02-02T00:38:41.434Z,5.07
2023-02-02T00:41:08.163Z,4.97
2023-02-02T00:43:35.266Z,4.18
2023-02-02T00:46:02.265Z,4.85
2023-02-02T00:48:29.012Z,5.07
2023-02-02T00:50:56.042Z,5.15
2023-02-02T00:53:23.123Z,4.88
2023-02-02T00:55:49.829Z,5.22
2023-02-02T00:58:16.511Z,5.38
2023-02-02T01:00:43.401Z,5.53
2023-02-02T01:03:10.371Z,5.22
2023-02-02T01:05:37.063Z,5.40
2023-02-02T01:08:04.007Z,5.72
2023-02-02T01:10:30.746Z,4.82
2023-02-02T01:12:57.425Z,5.38
2023-02-02T01:15:24.964Z,5.07
2023-02-02T01:17:51.857Z,4.90
2023-02-02T01:20:20.276Z,4.57
2023-02-02T01:22:47.809Z,5.57
2023-02-02T01:25:14.873Z,4.00
2023-02-02T01:27:43.128Z,4.63
2023-02-02T01:30:10.866Z,3.67
2023-02-02T01:32:37.552Z,6.20
2023-02-02T01:35:04.406Z,5.15
2023-02-02T01:37:31.293Z,4.75
2023-02-02T01:39:57.960Z,5.65
2023-02-02T01:42:24.698Z,4.28
2023-02-02T01:44:57.290Z,5.15
2023-02-02T01:47:29.811Z,4.68
2023-02-02T01:49:56.753Z,3.65
2023-02-02T01:52:27.777Z,4.53
2023-02-02T01:55:10.725Z,4.10
2023-02-02T01:57:45.585Z,4.90
2023-02-02T02:00:15.816Z,4.18
2023-02-02T02:02:49.179Z,4.50
2023-02-02T02:05:20.758Z,4.15
2023-02-02T02:07:49.639Z,5.18
2023-02-02T02:10:18.253Z,4.32
2023-02-02T02:12:47.033Z,5.20
2023-02-02T02:15:32.031Z,4.53
2023-02-02T02:18:20.678Z,4.65
2023-02-02T02:21:43.585Z,5.63
2023-02-02T02:25:05.680Z,5.90
2023-02-02T02:28:04.940Z,4.72
2023-02-02T02:30:50.052Z,4.25
2023-02-02T02:33:35.694Z,5.45
2023-02-02T02:36:36.335Z,3.83
2023-02-02T02:39:32.753Z,5.15
2023-02-02T02:42:06.637Z,5.00
2023-02-02T02:44:33.863Z,4.90
2023-02-02T02:47:00.997Z,4.35
2023-02-02T02:49:27.680Z,5.20
2023-02-02T02:51:56.670Z,4.50
2023-02-02T02:54:33.327Z,4.55
2023-02-02T02:57:12.169Z,4.88
2023-02-02T02:59:53.360Z,4.68
2023-02-02T03:02:43.110Z,4.53
2023-02-02T03:06:00.491Z,3.90
2023-02-02T03:08:27.224Z,4.70
2023-02-02T03:10:57.181Z,5.00
2023-02-02T03:13:24.530Z,4.47
2023-02-02T03:15:51.498Z,3.45
2023-02-02T03:18:21.917Z,5.20
2023-02-02T03:20:48.698Z,4.47
2023-02-02T03:23:15.527Z,4.72
2023-02-02T03:25:42.386Z,4.45
2023-02-02T03:28:09.198Z,3.80
2023-02-02T03:30:37.122Z,3.53
2023-02-02T03:33:05.418Z,4.18
2023-02-02T03:35:32.187Z,4.53
2023-02-02T03:37:58.975Z,3.35
2023-02-02T03:40:26.142Z,3.05
2023-02-02T03:42:52.830Z,2.85
2023-02-02T03:45:19.753Z,2.60
2023-02-02T03:47:46.460Z,2.47
2023-02-02T03:50:13.387Z,2.35
2023-02-02T03:52:40.650Z,2.65
2023-02-02T03:55:07.788Z,1.95
2023-02-02T03:57:34.568Z,2.25
2023-02-02T04:00:01.319Z,2.08
2023-02-02T04:02:28.039Z,2.60
2023-02-02T04:04:54.756Z,1.90
2023-02-02T04:07:21.690Z,2.15
2023-02-02T04:09:48.499Z,2.05
2023-02-02T04:12:15.165Z,2.17
2023-02-02T04:14:42.050Z,2.20
2023-02-02T04:17:08.813Z,1.83
2023-02-02T04:19:35.526Z,2.15
2023-02-02T04:22:02.341Z,1.52
2023-02-02T04:24:29.078Z,2.17
2023-02-02T04:26:55.899Z,2.20
2023-02-02T04:29:22.774Z,2.03
2023-02-02T04:31:49.728Z,1.85
2023-02-02T04:34:16.506Z,1.92
2023-02-02T04:36:43.508Z,2.47
2023-02-02T04:39:11.932Z,2.03
2023-02-02T04:41:38.619Z,1.88
2023-02-02T04:44:06.972Z,1.90
2023-02-02T04:46:33.744Z,1.92
2023-02-02T04:49:00.389Z,2.30
2023-02-02T04:51:27.209Z,2.10
2023-02-02T04:53:53.952Z,1.83
2023-02-02T04:56:20.696Z,1.95
2023-02-02T04:58:47.549Z,2.30
2023-02-02T05:01:19.562Z,1.90
2023-02-02T05:03:47.417Z,2.10
2023-02-02T05:06:15.943Z,1.90
2023-02-02T05:08:43.479Z,2.00
2023-02-02T05:11:12.650Z,2.10
2023-02-02T05:13:39.811Z,1.77
2023-02-02T05:16:07.337Z,2.42
2023-02-02T05:18:34.048Z,2.00
2023-02-02T05:21:02.637Z,2.25
2023-02-02T05:23:30.589Z,2.55
2023-02-02T05:25:57.553Z,2.25
2023-02-02T05:28:25.133Z,1.90
2023-02-02T05:30:52.423Z,1.92
2023-02-02T05:33:19.849Z,2.13
2023-02-02T05:35:47.793Z,2.15
2023-02-02T05:38:15.616Z,2.13
2023-02-02T05:40:42.923Z,2.78
2023-02-02T05:43:09.787Z,2.00
2023-02-02T05:45:36.544Z,2.03
2023-02-02T05:48:03.379Z,2.80
2023-02-02T05:50:30.099Z,2.20
2023-02-02T05:52:57.415Z,2.30
2023-02-02T05:55:24.415Z,2.33
2023-02-02T05:57:51.366Z,2.47
2023-02-02T06:00:18.567Z,2.22
2023-02-02T06:02:45.418Z,1.80
2023-02-02T06:05:12.277Z,2.40
2023-02-02T06:07:39.131Z,2.13
2023-02-02T06:10:06.083Z,2.28
2023-02-02T06:12:32.964Z,2.22
2023-02-02T06:14:59.870Z,2.55
2023-02-02T06:17:26.512Z,2.63
2023-02-02T06:19:56.221Z,2.42
2023-02-02T06:22:23.065Z,2.20
2023-02-02T06:24:49.904Z,2.08
2023-02-02T06:27:16.731Z,2.20
2023-02-02T06:29:43.511Z,3.05
2023-02-02T06:32:10.315Z,2.00
2023-02-02T06:34:37.236Z,2.35
2023-02-02T06:37:04.133Z,2.17
2023-02-02T06:39:30.800Z,2.10
2023-02-02T06:41:58.375Z,2.13
2023-02-02T06:44:26.149Z,2.13
2023-02-02T06:46:53.281Z,2.10
2023-02-02T06:49:20.016Z,2.65
2023-02-02T06:51:49.664Z,2.33
2023-02-02T06:54:16.332Z,2.23
2023-02-02T06:56:43.071Z,2.67
2023-02-02T06:59:09.801Z,2.53
2023-02-02T07:01:36.798Z,2.55
2023-02-02T07:04:04.061Z,1.83
2023-02-02T07:06:30.898Z,2.20
2023-02-02T07:09:02.531Z,2.15
2023-02-02T07:11:39.849Z,2.17
2023-02-02T07:14:09.620Z,2.25
2023-02-02T07:16:36.867Z,2.47
2023-02-02T07:19:03.921Z,1.85
2023-02-02T07:21:35.769Z,1.88
2023-02-02T07:24:04.927Z,2.00
2023-02-02T07:26:32.030Z,2.60
2023-02-02T07:28:58.799Z,2.00
2023-02-02T07:31:27.431Z,1.98
2023-02-02T07:33:54.835Z,2.22
2023-02-02T07:36:24.499Z,2.05
2023-02-02T07:39:02.572Z,1.70
2023-02-02T07:41:29.205Z,1.67
2023-02-02T07:43:57.428Z,2.17
2023-02-02T07:46:24.363Z,2.13
2023-02-02T07:48:55.390Z,2.53
2023-02-02T07:51:22.646Z,1.90
2023-02-02T07:53:52.183Z,2.33
2023-02-02T07:56:21.828Z,1.88
2023-02-02T07:58:49.060Z,2.47
2023-02-02T08:01:17.108Z,2.40
2023-02-02T08:03:44.349Z,1.95
2023-02-02T08:06:29.018Z,2.78
2023-02-02T08:08:56.121Z,2.20
2023-02-02T08:11:23.728Z,2.45
2023-02-02T08:13:52.857Z,3.00
2023-02-02T08:16:20.320Z,1.90
2023-02-02T08:18:47.469Z,2.38
2023-02-02T08:21:15.215Z,2.28
2023-02-02T08:23:42.850Z,2.38
2023-02-02T08:26:11.849Z,2.63
2023-02-02T08:28:40.748Z,3.17
2023-02-02T08:31:16.426Z,3.13
2023-02-02T08:33:43.359Z,2.70
2023-02-02T08:36:18.158Z,2.58
2023-02-02T08:38:45.855Z,2.28
2023-02-02T08:41:15.876Z,2.65
2023-02-02T08:43:43.359Z,2.53
2023-02-02T08:46:14.342Z,2.60
2023-02-02T08:48:41.650Z,2.40
2023-02-02T08:51:10.488Z,2.45
2023-02-02T08:53:37.357Z,2.58
2023-02-02T08:56:11.212Z,2.97
2023-02-02T08:58:38.337Z,2.72
2023-02-02T09:01:07.760Z,2.58
2023-02-02T09:03:34.973Z,2.78
2023-02-02T09:06:07.134Z,2.30
2023-02-02T09:08:34.356Z,2.65
2023-02-02T09:11:09.116Z,2.42
2023-02-02T09:13:37.772Z,2.97
2023-02-02T09:16:07.024Z,2.97
2023-02-02T09:18:33.841Z,2.80
2023-02-02T09:21:06.553Z,2.72
2023-02-02T09:23:35.713Z,2.92
2023-02-02T09:26:20.416Z,3.38
2023-02-02T09:28:55.821Z,3.05
2023-02-02T09:31:23.568Z,2.70
2023-02-02T09:33:50.401Z,2.80
2023-02-02T09:36:23.165Z,3.25
2023-02-02T09:38:51.019Z,2.80
2023-02-02T09:41:26.897Z,3.80
2023-02-02T09:44:21.596Z,2.70
2023-02-02T09:47:02.895Z,3.00
2023-02-02T09:49:39.592Z,2.88
2023-02-02T09:52:15.357Z,3.22
2023-02-02T09:54:46.288Z,3.30
2023-02-02T09:57:31.332Z,3.33
2023-02-02T09:59:58.308Z,3.00
2023-02-02T10:02:32.797Z,3.40
2023-02-02T10:05:09.090Z,3.10
2023-02-02T10:07:41.791Z,3.55
2023-02-02T10:10:27.421Z,3.15
2023-02-02T10:13:12.749Z,2.70
2023-02-02T10:15:46.099Z,3.08
2023-02-02T10:18:28.150Z,3.30
2023-02-02T10:20:59.574Z,2.97
2023-02-02T10:23:31.109Z,3.22
2023-02-02T10:26:13.158Z,2.78
2023-02-02T10:29:02.999Z,2.55
2023-02-02T10:32:02.166Z,3.42
2023-02-02T10:34:41.318Z,3.10
2023-02-02T10:37:30.995Z,2.92
2023-02-02T10:40:19.276Z,3.33
2023-02-02T10:43:08.819Z,3.25
2023-02-02T10:45:37.885Z,2.78
2023-02-02T10:48:13.948Z,2.72
2023-02-02T10:50:44.447Z,2.70
2023-02-02T10:53:14.368Z,2.63
2023-02-02T10:56:14.362Z,2.70
2023-02-02T10:58:58.691Z,2.97
2023-02-02T11:01:25.784Z,2.90
2023-02-02T11:04:12.543Z,2.28
2023-02-02T11:06:52.203Z,2.55
2023-02-02T11:09:25.200Z,2.57
2023-02-02T11:12:01.045Z,2.78
2023-02-02T11:14:45.742Z,3.17
2023-02-02T11:17:24.948Z,2.70
2023-02-02T11:19:52.845Z,3.25
2023-02-02T11:22:28.845Z,2.95
2023-02-02T11:24:57.313Z,3.00
2023-02-02T11:27:43.618Z,2.83
2023-02-02T11:30:34.623Z,3.20
2023-02-02T11:33:26.506Z,2.67
2023-02-02T11:36:05.326Z,2.60
2023-02-02T11:38:32.735Z,2.72
2023-02-02T11:41:03.790Z,2.80
2023-02-02T11:43:36.912Z,2.85
2023-02-02T11:46:06.524Z,2.42
2023-02-02T11:48:39.196Z,3.22
2023-02-02T11:51:08.116Z,3.33
2023-02-02T11:53:47.599Z,2.70
2023-02-02T11:56:25.489Z,2.42
2023-02-02T11:59:01.651Z,2.30
2023-02-02T12:01:30.150Z,3.05
2023-02-02T12:04:01.744Z,2.60
2023-02-02T12:06:38.700Z,2.90
2023-02-02T12:09:23.903Z,2.83
2023-02-02T12:12:12.747Z,2.83
2023-02-02T12:14:45.389Z,2.90
2023-02-02T12:17:42.274Z,2.45
2023-02-02T12:20:27.982Z,2.50
2023-02-02T12:23:18.095Z,2.55
2023-02-02T12:26:00.371Z,2.95
2023-02-02T12:29:04.835Z,2.72
2023-02-02T12:31:31.498Z,3.05
2023-02-02T12:34:23.882Z,3.17
2023-02-02T12:37:08.311Z,2.40
2023-02-02T12:40:00.544Z,2.70
2023-02-02T12:42:39.558Z,2.38
2023-02-02T12:45:24.461Z,2.35
2023-02-02T12:48:21.990Z,2.00
2023-02-02T12:51:14.852Z,2.20
2023-02-02T12:54:33.296Z,2.28
2023-02-02T12:57:32.868Z,2.35
2023-02-02T13:00:09.006Z,1.88
2023-02-02T13:02:42.599Z,2.03
2023-02-02T13:05:46.813Z,2.38
2023-02-02T13:08:25.569Z,1.95
2023-02-02T13:11:04.298Z,2.50
2023-02-02T13:13:38.521Z,2.50
2023-02-02T13:16:10.664Z,3.20
2023-02-02T13:18:53.932Z,3.13
2023-02-02T13:21:24.850Z,3.53
2023-02-02T13:23:56.634Z,3.88
2023-02-02T13:26:27.772Z,2.83
2023-02-02T13:29:01.839Z,2.58
2023-02-02T13:31:42.189Z,2.33
2023-02-02T13:34:20.495Z,2.88
2023-02-02T13:37:01.972Z,2.15
2023-02-02T13:39:37.419Z,2.35
2023-02-02T13:42:16.850Z,2.47
2023-02-02T13:44:49.930Z,2.50
2023-02-02T13:47:24.450Z,2.20
2023-02-02T13:49:56.723Z,2.40
2023-02-02T13:53:07.281Z,2.60
2023-02-02T13:56:09.324Z,2.53
2023-02-02T13:59:16.303Z,2.40
2023-02-02T14:01:49.593Z,3.03
2023-02-02T14:04:28.533Z,2.60
2023-02-02T14:06:59.439Z,2.85
2023-02-02T14:09:29.819Z,2.83
2023-02-02T14:11:59.940Z,2.67
2023-02-02T14:14:33.434Z,3.30
2023-02-02T14:17:01.047Z,2.90
2023-02-02T14:19:27.697Z,3.35
2023-02-02T14:22:17.484Z,3.35
2023-02-02T14:24:53.712Z,3.30
2023-02-02T14:27:29.382Z,3.63
2023-02-02T14:29:56.091Z,3.88
2023-02-02T14:32:29.174Z,3.70
2023-02-02T14:34:59.476Z,4.05
2023-02-02T14:37:28.802Z,3.85
2023-02-02T14:40:08.728Z,4.43
2023-02-02T14:43:18.538Z,4.55
2023-02-02T14:45:50.239Z,4.57
2023-02-02T14:48:22.570Z,4.50
2023-02-02T14:50:56.178Z,4.78
2023-02-02T14:53:28.657Z,5.85
2023-02-02T14:56:09.271Z,5.00
2023-02-02T15:01:22.976Z,5.65
2023-02-02T15:03:51.326Z,5.70
2023-02-02T15:06:40.663Z,6.68
2023-02-02T15:09:23.475Z,5.88
2023-02-02T15:12:01.004Z,5.90
2023-02-02T15:14:43.238Z,6.40
2023-02-02T15:17:16.176Z,6.65
2023-02-02T15:19:47.876Z,6.22
2023-02-02T15:22:18.271Z,6.47
2023-02-02T15:24:46.148Z,7.22
2023-02-02T15:27:18.943Z,6.70
2023-02-02T15:29:52.983Z,7.07
2023-02-02T15:32:24.631Z,6.57
2023-02-02T15:34:55.335Z,6.15
2023-02-02T15:37:29.710Z,5.90
2023-02-02T15:40:01.269Z,5.43
2023-02-02T15:43:00.813Z,5.65
2023-02-02T15:45:38.064Z,5.70
2023-02-02T15:48:31.739Z,6.63
2023-02-02T15:51:04.997Z,6.18
2023-02-02T15:53:48.607Z,6.10
2023-02-02T15:56:23.069Z,6.15
2023-02-02T15:58:54.789Z,6.28
2023-02-02T16:01:23.931Z,5.50
2023-02-02T16:03:53.260Z,5.68
2023-02-02T16:06:20.786Z,5.50
2023-02-02T16:08:49.419Z,5.40
2023-02-02T16:11:19.336Z,5.32
2023-02-02T16:14:19.456Z,5.15
2023-02-02T16:16:49.352Z,4.95
2023-02-02T16:19:26.583Z,4.80
2023-02-02T16:21:58.549Z,5.55
2023-02-02T16:24:28.763Z,4.72
2023-02-02T16:26:59.672Z,5.10
2023-02-02T16:29:28.321Z,5.05
2023-02-02T16:31:56.896Z,5.18
2023-02-02T16:34:39.977Z,5.35
2023-02-02T16:37:17.438Z,4.90
2023-02-02T16:39:44.321Z,4.97
2023-02-02T16:42:20.331Z,5.22
2023-02-02T16:44:48.818Z,4.90
2023-02-02T16:47:43.190Z,4.97
2023-02-02T16:50:10.041Z,5.72
2023-02-02T16:52:53.730Z,5.60
2023-02-02T16:55:22.020Z,5.85
2023-02-02T16:57:50.376Z,6.10
2023-02-02T17:00:24.016Z,7.07
2023-02-02T17:03:05.054Z,6.13
2023-02-02T17:05:48.086Z,6.18
2023-02-02T17:08:14.822Z,7.05
2023-02-02T17:10:43.752Z,6.80
2023-02-02T17:13:36.590Z,7.28
2023-02-02T17:16:03.723Z,7.20
2023-02-02T17:18:30.585Z,18.90
2023-02-02T17:21:03.767Z,8.10
2023-02-02T17:23:32.665Z,8.13
2023-02-02T17:25:59.584Z,8.38
2023-02-02T17:28:26.777Z,8.68
2023-02-02T17:31:03.113Z,8.63
2023-02-02T17:33:34.188Z,9.38
2023-02-02T17:36:01.619Z,7.55
2023-02-02T17:38:28.967Z,7.22
2023-02-02T17:41:01.332Z,8.30
2023-02-02T17:43:32.827Z,7.72
2023-02-02T17:45:59.805Z,7.45
2023-02-02T17:48:26.690Z,8.15
2023-02-02T17:50:53.455Z,7.75
2023-02-02T17:53:22.520Z,7.13
2023-02-02T17:55:52.036Z,8.93
2023-02-02T17:58:19.699Z,8.38
2023-02-02T18:00:48.960Z,7.78
2023-02-02T18:03:21.567Z,7.80
2023-02-02T18:05:48.524Z,8.15
2023-02-02T18:08:15.829Z,7.88
2023-02-02T18:10:43.700Z,7.85
2023-02-02T18:13:19.258Z,7.47
2023-02-02T18:15:46.711Z,7.05
2023-02-02T18:18:13.545Z,7.43
2023-02-02T18:20:50.271Z,6.38
2023-02-02T18:23:18.703Z,6.68
2023-02-02T18:25:45.442Z,6.50
2023-02-02T18:28:17.554Z,6.07
2023-02-02T18:30:44.951Z,7.05
2023-02-02T18:33:13.060Z,7.03
2023-02-02T18:35:47.399Z,6.72
2023-02-02T18:38:14.751Z,6.32
2023-02-02T18:40:41.719Z,6.18
2023-02-02T18:43:08.647Z,5.75
2023-02-02T18:45:36.542Z,6.53
2023-02-02T18:48:03.472Z,5.82
2023-02-02T18:50:30.667Z,6.75
2023-02-02T18:52:57.798Z,6.63
2023-02-02T18:55:25.031Z,6.75
2023-02-02T18:57:52.741Z,6.80
2023-02-02T19:00:19.991Z,6.88
2023-02-02T19:02:46.691Z,5.72
2023-02-02T19:05:32.623Z,6.30
2023-02-02T19:07:59.426Z,7.05
2023-02-02T19:10:27.631Z,6.43
2023-02-02T19:12:58.691Z,5.45
2023-02-02T19:15:26.922Z,5.93
2023-02-02T19:17:55.404Z,6.15
2023-02-02T19:20:29.980Z,6.15
2023-02-02T19:23:02.259Z,5.38
2023-02-02T19:25:29.176Z,5.78
2023-02-02T19:27:56.261Z,5.50
2023-02-02T19:30:23.910Z,4.80
2023-02-02T19:32:51.167Z,5.85
2023-02-02T19:35:24.611Z,5.10
2023-02-02T19:37:59.750Z,5.78
2023-02-02T19:40:27.005Z,4.95
2023-02-02T19:43:07.255Z,5.22
2023-02-02T19:45:35.735Z,5.20
2023-02-02T19:48:15.399Z,4.30
2023-02-02T19:50:42.215Z,4.72
2023-02-02T19:53:20.579Z,3.88
2023-02-02T19:55:48.612Z,5.22
2023-02-02T19:58:28.909Z,4.90
2023-02-02T20:00:58.201Z,3.80
2023-02-02T20:03:28.286Z,3.88
2023-02-02T20:05:57.068Z,3.90
2023-02-02T20:08:40.734Z,4.25
2023-02-02T20:11:36.198Z,4.68
2023-02-02T20:14:21.745Z,3.80
2023-02-02T20:17:29.096Z,3.90
2023-02-02T20:19:57.085Z,3.58
2023-02-02T20:22:28.583Z,5.00
2023-02-02T20:25:03.800Z,3.45
2023-02-02T20:27:33.631Z,4.00
2023-02-02T20:30:18.038Z,7.30
2023-02-02T20:32:44.864Z,3.55
2023-02-02T20:35:43.143Z,3.72
2023-02-02T20:38:35.823Z,3.22
2023-02-02T20:41:04.685Z,2.97
2023-02-02T20:43:31.518Z,4.13
2023-02-02T20:45:58.402Z,2.72
2023-02-02T20:48:26.256Z,3.75
2023-02-02T20:50:53.110Z,3.35
2023-02-02T20:53:20.607Z,4.03
2023-02-02T20:55:47.643Z,3.70
2023-02-02T20:58:14.390Z,4.32
2023-02-02T21:00:41.098Z,3.38
2023-02-02T21:03:08.118Z,3.40
2023-02-02T21:05:34.914Z,3.30
2023-02-02T21:08:01.910Z,3.38
2023-02-02T21:10:29.159Z,3.30
2023-02-02T21:12:56.052Z,2.97
2023-02-02T21:15:23.551Z,3.05
2023-02-02T21:17:50.624Z,3.63
2023-02-02T21:20:17.449Z,3.38
2023-02-02T21:22:44.479Z,3.03
2023-02-02T21:25:11.685Z,3.75
2023-02-02T21:27:41.397Z,3.47
2023-02-02T21:30:12.939Z,3.40
2023-02-02T21:32:40.059Z,3.00
2023-02-02T21:35:07.151Z,3.33
2023-02-02T21:37:37.469Z,3.08
2023-02-02T21:40:13.966Z,3.10
2023-02-02T21:42:47.541Z,2.90
2023-02-02T21:45:20.312Z,2.83
2023-02-02T21:47:59.143Z,3.30
2023-02-02T21:50:29.687Z,3.17
2023-02-02T21:55:39.660Z,2.60
2023-02-02T21:58:20.987Z,2.83
2023-02-02T22:00:49.565Z,3.15
2023-02-02T22:03:35.005Z,2.70
2023-02-02T22:06:05.086Z,2.53
2023-02-02T22:11:56.004Z,2.57
2023-02-02T22:14:32.927Z,2.65
2023-02-02T22:17:00.317Z,3.28
2023-02-02T22:19:34.342Z,2.20
2023-02-02T22:22:25.666Z,2.92
2023-02-02T22:25:17.640Z,2.38
2023-02-02T22:27:47.431Z,2.65
2023-02-02T22:30:23.724Z,2.20
2023-02-02T22:32:51.119Z,2.13
2023-02-02T22:35:17.861Z,1.90
2023-02-02T22:37:44.520Z,2.33
2023-02-02T22:40:12.089Z,2.30
2023-02-02T22:42:38.860Z,2.08
2023-02-02T22:45:05.998Z,2.72
2023-02-02T22:47:32.901Z,3.08
2023-02-02T22:49:59.620Z,1.90
2023-02-02T22:52:26.240Z,2.25
2023-02-02T22:54:53.174Z,2.17
2023-02-02T22:57:19.859Z,2.00
2023-02-02T22:59:46.614Z,2.50
2023-02-02T23:02:13.430Z,2.30
2023-02-02T23:04:40.165Z,1.80
2023-02-02T23:07:06.837Z,2.33
2023-02-02T23:09:34.090Z,2.03
2023-02-02T23:12:00.894Z,2.20
2023-02-02T23:14:27.539Z,2.20
2023-02-02T23:16:54.831Z,2.10
2023-02-02T23:19:21.570Z,2.13
2023-02-02T23:21:48.314Z,2.33
2023-02-02T23:24:15.154Z,2.58
2023-02-02T23:26:41.863Z,2.40
2023-02-02T23:29:08.492Z,2.40
2023-02-02T23:31:35.406Z,3.20
2023-02-02T23:34:02.200Z,2.28
2023-02-02T23:36:28.986Z,2.28
2023-02-02T23:38:55.768Z,2.10
2023-02-02T23:41:22.435Z,2.75
2023-02-02T23:43:50.359Z,2.63
2023-02-02T23:46:18.116Z,2.42
2023-02-02T23:48:45.291Z,2.50
2023-02-02T23:51:13.149Z,2.70
2023-02-02T23:53:41.763Z,2.05
2023-02-02T23:56:08.489Z,2.45
2023-02-02T23:58:36.285Z,2.17
